메인 페이지
METAR-TAF:

METAR-TAF

공항 :

리브르빌, 가봉

위도: 00-27N, 경도: 009-25E, 고도: 12m

현재 날씨관측

예보는 1 시간 20분 전, 09:00시(UTC)에 발표되었습니다.
11kt
온도 25°C
습도 79%
기압 1016 hPa
시정 10km 이상
고도 1000ft 상공 구름 조금

METAR: FOOL 130900Z 17011KT 9999 FEW010 25/21 Q1016 NOSIG

시각: 11:20 (10:20 UTC)

예보

예보는 5 시간 20분 전, 05:00시(UTC)에 발표되었습니다.
예보 대상 시간: 13일 06시부터 14일 12시까지 (UTC)
6kt
시정: 8000m
고도 1000ft 상공 구름 보통
고도 2600ft 상공 구름 많음

TAF: FOOL 130500Z 1306/1412 17006KT 8000 SCT010 BKN026

4,000개 이상의 공항 관측 자료 및 예보 (METAR 및 TAF 보고).

지도상에서 검색 가능한 기상관측소가 노란 점과 빨간 점으로 표시되어 있습니다.

기상관측소 명을 보려면 표시 위로 마우스를 이동하세요.

날씨 관측과 예보를 보려면 클릭하세요.

지도 변경 : 확대하려면 엑스 표시가 있는 녹색 버튼, 축소하려면 빼기 표시가 있는 녹색 버튼, 다음 페이지의 지도를 보려면 녹색 화살표를 클릭하세요.


METAR-TAF: